createdAt,value
2023-03-10T05:17:55.099Z,98641.69
2023-03-10T05:19:00.959Z,98639.19
2023-03-10T05:20:11.370Z,98635.88
2023-03-10T05:21:26.690Z,98648.00
2023-03-10T05:22:36.890Z,98655.28
2023-03-10T05:26:43.022Z,98651.06
2023-03-10T05:27:53.024Z,98645.88
2023-03-10T05:29:09.418Z,98650.31
2023-03-10T05:30:23.247Z,98658.06
2023-03-10T05:31:57.235Z,98663.19
2023-03-10T05:33:15.636Z,98656.53
2023-03-10T05:34:30.946Z,98658.44
2023-03-10T06:27:29.334Z,98744.69
2023-03-10T06:30:12.468Z,98745.44
2023-03-10T06:31:45.124Z,98745.19
2023-03-10T07:23:25.716Z,98823.97
2023-03-10T07:24:34.506Z,98822.13
2023-03-10T07:25:42.707Z,98829.88
2023-03-10T07:26:47.210Z,98835.59
2023-03-10T07:28:05.125Z,98821.75
2023-03-10T07:29:12.967Z,98830.72
2023-03-10T07:31:50.926Z,98840.97
2023-03-10T07:32:58.350Z,98848.34
2023-03-10T07:34:06.098Z,98847.59
2023-03-10T07:35:09.661Z,98849.03
2023-03-10T07:36:17.550Z,98845.13
2023-03-10T07:37:27.710Z,98844.50
2023-03-10T07:38:33.738Z,98857.94
2023-03-10T07:39:40.344Z,98862.31
2023-03-10T07:40:47.798Z,98852.41
2023-03-10T07:41:52.223Z,98858.66
2023-03-10T07:42:59.654Z,98857.69
2023-03-10T07:44:11.044Z,98859.41
2023-03-10T07:46:34.552Z,98859.28
2023-03-10T07:47:40.611Z,98864.72
2023-03-10T07:48:48.471Z,98853.19
2023-03-10T07:49:55.534Z,98857.28
2023-03-10T07:51:06.657Z,98856.53
2023-03-10T07:52:11.017Z,98849.69
2023-03-10T07:53:17.923Z,98856.81
2023-03-10T07:54:22.981Z,98858.13
2023-03-10T07:56:55.260Z,98862.91
2023-03-10T07:58:04.900Z,98863.47
2023-03-10T08:00:35.364Z,98869.56
2023-03-10T08:01:40.343Z,98875.47
2023-03-10T08:02:44.794Z,98864.25
2023-03-10T08:03:51.494Z,98860.22
2023-03-10T08:04:55.417Z,98855.63
2023-03-10T08:06:12.122Z,98857.00
2023-03-10T08:07:16.373Z,98860.88
2023-03-10T08:08:22.945Z,98864.06
2023-03-10T08:09:29.390Z,98862.00
2023-03-10T08:10:36.149Z,98860.66
2023-03-10T08:11:39.570Z,98866.31
2023-03-10T08:12:44.321Z,98865.53
2023-03-10T08:13:48.872Z,98871.72
2023-03-10T08:15:00.044Z,98860.53
2023-03-10T08:16:07.672Z,98866.94
2023-03-10T08:17:20.081Z,98867.50
2023-03-10T08:18:28.682Z,98867.69
2023-03-10T08:19:37.897Z,98870.06
2023-03-10T08:20:42.966Z,98872.09
2023-03-10T08:21:48.548Z,98868.59
2023-03-10T08:22:57.872Z,98872.91
2023-03-10T08:24:04.472Z,98875.31
2023-03-10T08:25:13.119Z,98879.44
2023-03-10T08:26:29.875Z,98878.88
2023-03-10T08:27:40.094Z,98880.31
2023-03-10T08:28:46.502Z,98875.13
2023-03-10T08:29:50.383Z,98883.78
2023-03-10T08:31:04.130Z,98884.66
2023-03-10T08:32:11.509Z,98888.75
2023-03-10T08:33:18.748Z,98889.56
2023-03-10T08:34:32.321Z,98892.69
2023-03-10T08:35:40.548Z,98894.03
2023-03-10T08:36:45.314Z,98893.09
2023-03-10T08:37:48.395Z,98899.50
2023-03-10T08:38:56.096Z,98893.56
2023-03-10T08:40:02.729Z,98896.34
2023-03-10T08:41:23.724Z,98891.13
2023-03-10T08:42:28.146Z,98886.09
2023-03-10T08:43:39.305Z,98901.28
2023-03-10T08:44:46.519Z,98891.13
2023-03-10T08:45:50.643Z,98897.06
2023-03-10T08:46:56.332Z,98892.97
2023-03-10T08:47:59.126Z,98905.59
2023-03-10T08:49:05.733Z,98897.06
2023-03-10T08:50:08.949Z,98900.59
2023-03-10T08:51:17.534Z,98898.34
2023-03-10T08:52:21.590Z,98898.66
2023-03-10T08:53:27.206Z,98899.09
2023-03-10T08:54:40.651Z,98900.25
2023-03-10T08:55:43.218Z,98900.88
2023-03-10T08:56:54.431Z,98912.53
2023-03-10T08:58:00.361Z,98908.03
2023-03-10T08:59:07.774Z,98909.91
2023-03-10T09:00:17.276Z,98912.66
2023-03-10T09:01:25.094Z,98912.94
2023-03-10T09:02:30.042Z,98917.00
2023-03-10T09:03:38.753Z,98918.38
2023-03-10T09:04:42.755Z,98915.41
2023-03-10T09:05:46.115Z,98919.28
2023-03-10T09:06:53.443Z,98920.84
2023-03-10T09:07:58.391Z,98913.56
2023-03-10T09:09:01.815Z,98919.41
2023-03-10T09:11:43.969Z,98915.41
2023-03-10T09:13:03.953Z,98923.00
2023-03-10T09:14:18.955Z,98928.41
2023-03-10T09:15:24.692Z,98919.81
2023-03-10T09:16:31.141Z,98917.84
2023-03-10T09:17:41.011Z,98927.75
2023-03-10T09:18:46.136Z,98933.19
2023-03-10T09:19:50.570Z,98925.47
2023-03-10T09:20:53.768Z,98930.00
2023-03-10T09:21:57.933Z,98924.38
2023-03-10T09:23:06.844Z,98924.81
2023-03-10T09:24:09.858Z,98930.34
2023-03-10T09:25:13.488Z,98931.03
2023-03-10T09:26:22.664Z,98936.28
2023-03-10T09:27:26.575Z,98933.25
2023-03-10T09:28:29.096Z,98928.63
2023-03-10T09:29:43.111Z,98931.75
2023-03-10T09:30:48.903Z,98930.19
2023-03-10T09:31:51.477Z,98935.88
2023-03-10T09:33:08.450Z,98929.91
2023-03-10T09:34:20.512Z,98932.06
2023-03-10T09:35:27.072Z,98932.06
2023-03-10T09:36:30.212Z,98937.81
2023-03-10T09:37:34.597Z,98935.25
2023-03-10T09:38:39.389Z,98932.69
2023-03-10T09:39:45.039Z,98929.91
2023-03-10T09:41:06.726Z,98930.94
2023-03-10T09:42:38.914Z,98933.56
2023-03-10T09:43:50.853Z,98937.38
2023-03-10T09:45:20.803Z,98945.41
2023-03-10T09:46:40.545Z,98942.22
2023-03-10T09:48:05.756Z,98945.66
2023-03-10T09:49:51.777Z,98953.06
2023-03-10T09:50:57.120Z,98947.94
2023-03-10T09:52:25.099Z,98949.09
2023-03-10T09:53:54.448Z,98958.88
2023-03-10T09:55:07.936Z,98949.47
2023-03-10T09:56:16.181Z,98943.94
2023-03-10T09:57:24.652Z,98950.38
2023-03-10T09:58:30.554Z,98951.56
2023-03-10T09:59:38.027Z,98952.34
2023-03-10T10:00:45.501Z,98942.25
2023-03-10T10:01:52.609Z,98952.38
2023-03-10T10:03:12.817Z,98955.41
2023-03-10T10:04:39.752Z,98955.69
2023-03-10T10:05:51.230Z,98954.38
2023-03-10T10:06:57.676Z,98969.97
2023-03-10T10:08:06.237Z,98966.19
2023-03-10T10:09:33.040Z,98958.38
2023-03-10T10:10:39.306Z,98970.75
2023-03-10T10:11:44.523Z,98971.16
2023-03-10T10:12:55.708Z,98961.88
2023-03-10T10:14:29.221Z,98970.94
2023-03-10T10:15:40.019Z,98967.38
2023-03-10T10:17:07.573Z,98967.22
2023-03-10T10:18:56.416Z,98967.16
2023-03-10T10:19:59.867Z,98966.81
2023-03-10T10:21:13.805Z,98971.28
2023-03-10T10:22:47.522Z,98961.97
2023-03-10T10:24:06.772Z,98969.22
2023-03-10T10:25:15.773Z,98976.25
2023-03-10T10:26:25.116Z,98971.44
2023-03-10T10:27:32.256Z,98973.44
2023-03-10T10:28:50.946Z,98969.25
2023-03-10T10:29:58.806Z,98971.53
2023-03-10T10:31:14.424Z,98980.59
2023-03-10T10:32:19.945Z,98976.25
2023-03-10T10:33:22.992Z,98978.31
2023-03-10T10:34:28.847Z,98977.31
2023-03-10T10:35:42.235Z,98983.22
2023-03-10T10:36:58.700Z,98989.84
2023-03-10T10:38:04.358Z,98981.75
2023-03-10T10:39:33.492Z,98978.34
2023-03-10T10:41:19.096Z,98976.88
2023-03-10T10:42:28.731Z,98984.38
2023-03-10T10:43:41.877Z,98987.91
2023-03-10T10:44:47.211Z,98986.00
2023-03-10T10:47:30.833Z,98980.44
2023-03-10T10:48:46.743Z,98992.47
2023-03-10T10:49:50.068Z,98984.69
2023-03-10T10:50:55.979Z,98997.50
2023-03-10T10:52:19.061Z,98983.91
2023-03-10T10:53:27.035Z,98987.81
2023-03-10T10:54:41.802Z,98995.19
2023-03-10T10:55:46.463Z,98994.31
2023-03-10T10:56:59.584Z,98989.84
2023-03-10T10:58:06.907Z,98989.47
2023-03-10T10:59:25.735Z,99003.31
2023-03-10T11:00:32.752Z,99005.06
2023-03-10T11:01:59.618Z,99012.81
2023-03-10T11:03:20.924Z,99016.16
2023-03-10T11:04:26.233Z,99011.75
2023-03-10T11:05:39.087Z,99015.84
2023-03-10T11:06:44.986Z,99015.13
2023-03-10T11:07:47.892Z,99018.31
2023-03-10T11:08:53.147Z,99019.22
2023-03-10T11:10:00.562Z,99020.25
2023-03-10T11:11:06.667Z,99027.81
2023-03-10T11:12:34.925Z,99022.25
2023-03-10T11:13:56.307Z,99022.38
2023-03-10T11:15:30.365Z,99029.78
2023-03-10T11:17:30.396Z,99027.34
2023-03-10T11:18:43.815Z,99031.91
2023-03-10T11:19:56.264Z,99025.06
2023-03-10T11:21:08.412Z,99034.44
2023-03-10T11:22:33.714Z,99027.75
2023-03-10T11:24:00.150Z,99034.81
2023-03-10T11:25:11.217Z,99044.59
2023-03-10T11:26:33.294Z,99039.66
2023-03-10T11:27:49.329Z,99034.88
2023-03-10T11:29:30.066Z,99038.06
2023-03-10T11:30:47.220Z,99047.31
2023-03-10T11:32:19.377Z,99042.22
2023-03-10T11:33:37.961Z,99048.97
2023-03-10T11:34:51.234Z,99058.91
2023-03-10T11:36:28.396Z,99053.88
2023-03-10T11:37:43.770Z,99055.00
2023-03-10T11:38:51.896Z,99060.38
2023-03-10T11:40:08.022Z,99058.13
2023-03-10T11:41:44.537Z,99057.59
2023-03-10T11:43:07.086Z,99060.81
2023-03-10T11:44:38.937Z,99061.03
2023-03-10T11:45:55.394Z,99069.56
2023-03-10T11:47:23.949Z,99062.59
2023-03-10T11:48:44.535Z,99077.56
2023-03-10T11:51:45.023Z,99080.22
2023-03-10T11:52:59.391Z,99065.38
2023-03-10T11:54:20.292Z,99069.19
2023-03-10T11:55:23.074Z,99087.63
2023-03-10T11:56:28.269Z,99088.03
2023-03-10T11:57:44.056Z,99084.06
2023-03-10T11:59:00.479Z,99085.66
2023-03-10T12:00:15.689Z,99089.97
2023-03-10T12:01:33.236Z,99091.69
2023-03-10T12:03:13.782Z,99099.47
2023-03-10T12:04:25.705Z,99102.00
2023-03-10T12:05:43.115Z,99104.16
2023-03-10T12:06:58.820Z,99105.22
2023-03-10T12:08:37.720Z,99100.34
2023-03-10T12:10:12.377Z,99111.28
2023-03-10T12:12:04.578Z,99108.69
2023-03-10T12:13:50.690Z,99112.84
2023-03-10T12:14:57.393Z,99125.44
2023-03-10T12:16:01.484Z,99123.97
2023-03-10T12:20:15.124Z,99117.38
2023-03-10T12:21:21.655Z,99117.66
2023-03-10T12:24:48.449Z,99116.06
2023-03-10T12:25:54.400Z,99112.28
2023-03-10T12:27:05.668Z,99122.13
2023-03-10T12:28:24.793Z,99123.22
2023-03-10T12:29:35.658Z,99126.16
2023-03-10T12:31:10.768Z,99124.84
2023-03-10T12:32:42.205Z,99132.06
2023-03-10T12:33:47.972Z,99135.25
2023-03-10T12:35:33.125Z,99135.53
2023-03-10T12:36:50.196Z,99135.03
2023-03-10T12:38:43.558Z,99131.56
2023-03-10T12:39:53.763Z,99142.56
2023-03-10T12:41:43.482Z,99139.78
2023-03-10T12:42:47.131Z,99140.47
2023-03-10T12:43:49.034Z,99144.28
2023-03-10T12:45:01.403Z,99149.59
2023-03-10T12:46:16.290Z,99151.06
2023-03-10T12:47:22.991Z,99144.56
2023-03-10T12:48:26.736Z,99146.25
2023-03-10T12:49:32.241Z,99152.59
2023-03-10T12:50:53.658Z,99157.31
2023-03-10T12:52:07.843Z,99157.88
2023-03-10T12:53:34.728Z,99161.91
2023-03-10T12:54:56.909Z,99149.41
2023-03-10T12:56:13.993Z,99164.81
2023-03-10T12:57:36.961Z,99161.44
2023-03-10T12:58:43.488Z,99165.13
2023-03-10T13:00:19.295Z,99175.16
2023-03-10T13:01:25.771Z,99166.34
2023-03-10T13:02:48.954Z,99171.50
2023-03-10T13:03:56.612Z,99168.94
2023-03-10T13:05:06.582Z,99166.00
2023-03-10T13:06:14.458Z,99175.41
2023-03-10T13:07:19.549Z,99169.50
2023-03-10T13:08:44.385Z,99171.75
2023-03-10T13:09:49.099Z,99175.41
2023-03-10T13:10:56.787Z,99173.38
2023-03-10T13:12:07.551Z,99183.56
2023-03-10T13:13:16.810Z,99183.75
2023-03-10T13:14:24.725Z,99183.34
2023-03-10T13:15:31.454Z,99178.66
2023-03-10T13:16:33.831Z,99182.16
2023-03-10T13:17:36.043Z,99179.09
2023-03-10T13:18:46.604Z,99178.66
2023-03-10T13:20:05.815Z,99180.19
2023-03-10T13:21:24.921Z,99182.56
2023-03-10T13:22:27.773Z,99184.41
2023-03-10T13:23:35.542Z,99182.09
2023-03-10T13:24:41.782Z,99191.56
2023-03-10T13:26:00.678Z,99184.88
2023-03-10T13:27:08.969Z,99195.03
2023-03-10T13:28:12.424Z,99198.59
2023-03-10T13:29:20.624Z,99192.94
2023-03-10T13:30:26.752Z,99188.72
2023-03-10T13:31:33.814Z,99194.47
2023-03-10T13:32:37.402Z,99197.50
2023-03-10T13:33:52.366Z,99192.47
2023-03-10T13:34:57.477Z,99196.91
2023-03-10T13:35:59.781Z,99200.94
2023-03-10T13:37:07.635Z,99209.16
2023-03-10T13:38:17.866Z,99208.38
2023-03-10T13:39:27.395Z,99203.94
2023-03-10T13:40:37.040Z,99205.22
2023-03-10T13:41:46.140Z,99207.41
2023-03-10T13:42:48.347Z,99207.66
2023-03-10T13:43:54.959Z,99214.88
2023-03-10T13:44:57.046Z,99210.41
2023-03-10T13:46:01.085Z,99211.97
2023-03-10T13:47:12.788Z,99210.31
2023-03-10T13:48:14.722Z,99218.22
2023-03-10T13:49:18.316Z,99209.72
2023-03-10T13:50:20.504Z,99213.56
2023-03-10T13:51:25.071Z,99213.47
2023-03-10T13:52:30.332Z,99210.09
2023-03-10T13:53:34.856Z,99220.41
2023-03-10T13:54:41.212Z,99209.44
2023-03-10T13:55:43.177Z,99215.91
2023-03-10T13:56:46.415Z,99225.84
2023-03-10T13:57:49.280Z,99221.13
2023-03-10T13:58:55.738Z,99225.19
2023-03-10T13:59:59.691Z,99224.81
2023-03-10T14:01:01.732Z,99218.13
2023-03-10T14:02:05.351Z,99226.19
2023-03-10T14:03:08.489Z,99227.78
2023-03-10T14:04:16.782Z,99226.13
2023-03-10T14:05:54.562Z,99223.13
2023-03-10T14:07:18.613Z,99230.41
2023-03-10T14:08:28.406Z,99235.53
2023-03-10T14:09:31.005Z,99229.69
2023-03-10T14:10:33.574Z,99233.56
2023-03-10T14:11:44.764Z,99234.13
2023-03-10T14:12:52.266Z,99235.09
2023-03-10T14:13:54.440Z,99234.06
2023-03-10T14:15:21.329Z,99237.97
2023-03-10T14:16:57.084Z,99238.81
2023-03-10T14:18:07.904Z,99240.88
2023-03-10T14:19:10.724Z,99250.63
2023-03-10T14:20:33.148Z,99249.06
2023-03-10T14:21:58.434Z,99237.91
2023-03-10T14:23:41.572Z,99245.28
2023-03-10T14:24:44.878Z,99242.19
2023-03-10T14:25:49.311Z,99246.09
2023-03-10T14:26:51.718Z,99245.13
2023-03-10T14:27:57.904Z,99244.75
2023-03-10T14:29:12.932Z,99255.34
2023-03-10T14:30:30.288Z,99245.81
2023-03-10T14:31:32.732Z,99244.09
2023-03-10T14:32:35.006Z,99245.41
2023-03-10T14:33:37.242Z,99245.59
2023-03-10T14:34:39.106Z,99246.53
2023-03-10T14:35:41.882Z,99246.41
2023-03-10T14:36:43.853Z,99254.06
2023-03-10T14:37:46.839Z,99244.53
2023-03-10T14:38:57.792Z,99244.19
2023-03-10T14:39:59.859Z,99238.66
2023-03-10T14:41:05.782Z,99247.53
2023-03-10T14:42:19.807Z,99250.75
2023-03-10T14:43:25.580Z,99256.31
2023-03-10T14:44:28.608Z,99246.63
2023-03-10T14:45:33.965Z,99248.22
2023-03-10T14:46:36.177Z,99257.91
2023-03-10T14:47:38.486Z,99257.25
2023-03-10T14:48:42.132Z,99259.47
2023-03-10T14:49:50.486Z,99259.63
2023-03-10T14:50:54.679Z,99265.38
2023-03-10T14:51:58.261Z,99262.63
2023-03-10T14:53:02.971Z,99267.09
2023-03-10T14:54:19.403Z,99266.13
2023-03-10T14:55:25.009Z,99262.69
2023-03-10T14:56:28.120Z,99270.03
2023-03-10T14:57:30.534Z,99269.09
2023-03-10T14:58:40.002Z,99267.31
2023-03-10T14:59:42.057Z,99272.25
2023-03-10T15:00:44.250Z,99270.63
2023-03-10T15:01:46.288Z,99273.66
2023-03-10T15:02:48.872Z,99273.84
2023-03-10T15:03:50.985Z,99275.28
2023-03-10T15:04:53.053Z,99272.09
2023-03-10T15:05:55.123Z,99269.56
2023-03-10T15:06:56.997Z,99278.31
2023-03-10T15:07:58.873Z,99277.38
2023-03-10T15:09:03.870Z,99272.72
2023-03-10T15:10:14.407Z,99277.53
2023-03-10T15:11:35.689Z,99284.38
2023-03-10T15:12:40.872Z,99285.47
2023-03-10T15:13:43.001Z,99287.56
2023-03-10T15:14:52.449Z,99288.34
2023-03-10T15:15:54.570Z,99293.78
2023-03-10T15:16:56.644Z,99286.75
2023-03-10T15:17:59.799Z,99296.19
2023-03-10T15:19:01.665Z,99295.53
2023-03-10T15:20:08.421Z,99298.56
2023-03-10T15:21:10.580Z,99294.09
2023-03-10T15:22:15.393Z,99299.69
2023-03-10T15:23:24.880Z,99305.28
2023-03-10T15:24:26.878Z,99311.00
2023-03-10T15:25:29.029Z,99311.66
2023-03-10T15:26:31.884Z,99311.78
2023-03-10T15:27:33.898Z,99312.44
2023-03-10T15:28:37.377Z,99311.63
2023-03-10T15:29:39.493Z,99312.59
2023-03-10T15:30:41.757Z,99312.91
2023-03-10T15:31:43.963Z,99318.66
2023-03-10T15:32:48.836Z,99322.81
2023-03-10T15:33:50.810Z,99323.44
2023-03-10T15:34:52.800Z,99324.88
2023-03-10T15:35:55.205Z,99331.41
2023-03-10T15:36:57.115Z,99320.41
2023-03-10T15:37:59.342Z,99330.78
2023-03-10T15:39:01.512Z,99332.50
2023-03-10T15:40:04.457Z,99328.84
2023-03-10T15:41:06.315Z,99339.84
2023-03-10T15:42:08.382Z,99341.28
2023-03-10T15:43:10.730Z,99338.09
2023-03-10T15:44:12.630Z,99341.63
2023-03-10T15:45:15.509Z,99347.97
2023-03-10T15:46:17.934Z,99336.19
2023-03-10T15:47:20.740Z,99345.09
2023-03-10T15:48:22.702Z,99341.78
2023-03-10T15:49:24.680Z,99345.44
2023-03-10T15:50:27.958Z,99347.34
2023-03-10T15:51:30.348Z,99351.16
2023-03-10T15:52:32.337Z,99348.78
2023-03-10T15:53:34.222Z,99350.69
2023-03-10T15:54:36.151Z,99357.69
2023-03-10T15:55:41.617Z,99361.03
2023-03-10T15:56:43.570Z,99362.19
2023-03-10T15:57:48.466Z,99365.34
2023-03-10T15:58:50.515Z,99363.56
2023-03-10T15:59:53.593Z,99354.50
2023-03-10T16:00:55.586Z,99361.19
2023-03-10T16:02:00.182Z,99356.88
2023-03-10T16:03:02.377Z,99362.13
2023-03-10T16:04:06.119Z,99361.69
2023-03-10T16:05:08.707Z,99362.63
2023-03-10T16:06:12.719Z,99367.09
2023-03-10T16:07:15.644Z,99358.50
2023-03-10T16:08:19.433Z,99369.31
2023-03-10T16:09:21.537Z,99367.75
2023-03-10T16:10:23.416Z,99371.75
2023-03-10T16:11:26.172Z,99374.56
2023-03-10T16:12:28.646Z,99370.75
2023-03-10T16:13:31.268Z,99371.53
2023-03-10T16:14:33.362Z,99371.09
2023-03-10T16:15:38.395Z,99374.72
2023-03-10T16:16:40.391Z,99373.13
2023-03-10T16:17:43.886Z,99373.78
2023-03-10T16:18:47.136Z,99380.94
2023-03-10T16:19:49.164Z,99367.56
2023-03-10T16:20:58.838Z,99384.28
2023-03-10T16:22:00.851Z,99376.66
2023-03-10T16:23:02.775Z,99375.06
2023-03-10T16:24:04.840Z,99375.06
2023-03-10T16:25:09.132Z,99379.19
2023-03-10T16:26:17.241Z,99381.75
2023-03-10T16:27:19.149Z,99384.28
2023-03-10T16:28:21.056Z,99374.88
2023-03-10T16:29:25.809Z,99383.63
2023-03-10T16:30:29.259Z,99379.97
2023-03-10T16:31:31.496Z,99381.72
2023-03-10T16:32:34.110Z,99377.88
2023-03-10T16:33:36.185Z,99391.75
2023-03-10T16:34:38.164Z,99387.75
2023-03-10T16:35:40.139Z,99383.78
2023-03-10T16:36:42.255Z,99387.75
2023-03-10T16:37:44.548Z,99383.78
2023-03-10T16:38:46.972Z,99383.16
2023-03-10T16:39:48.846Z,99383.59
2023-03-10T16:40:51.595Z,99386.81
2023-03-10T16:41:53.531Z,99386.97
2023-03-10T16:42:55.466Z,99386.31
2023-03-10T16:43:57.404Z,99386.31
2023-03-10T16:44:59.605Z,99388.41
2023-03-10T16:46:12.785Z,99388.41
2023-03-10T16:47:17.836Z,99385.97
2023-03-10T16:48:20.853Z,99380.41
2023-03-10T16:49:22.752Z,99384.25
2023-03-10T16:50:24.598Z,99385.03
2023-03-10T16:51:39.010Z,99386.00
2023-03-10T16:52:42.898Z,99377.41
2023-03-10T16:53:45.406Z,99384.09
2023-03-10T16:54:47.534Z,99377.88
2023-03-10T16:55:49.558Z,99379.78
2023-03-10T16:56:53.494Z,99385.81
2023-03-10T16:57:56.754Z,99385.22
2023-03-10T16:58:58.965Z,99389.97
2023-03-10T17:00:00.916Z,99386.13
2023-03-10T17:01:02.817Z,99386.91
2023-03-10T17:02:05.106Z,99389.63
2023-03-10T17:03:07.059Z,99386.63
2023-03-10T17:04:08.944Z,99382.31
2023-03-10T17:05:10.913Z,99384.88
2023-03-10T17:06:16.861Z,99386.63
2023-03-10T17:07:19.441Z,99384.53
2023-03-10T17:08:22.302Z,99382.13
2023-03-10T17:09:24.228Z,99385.63
2023-03-10T17:10:27.012Z,99387.06
2023-03-10T17:11:31.782Z,99381.97
2023-03-10T17:12:34.656Z,99389.44
2023-03-10T17:13:38.003Z,99386.75
2023-03-10T17:14:40.102Z,99382.31
2023-03-10T17:15:41.914Z,99380.22
2023-03-10T17:16:45.360Z,99381.19
2023-03-10T17:17:47.398Z,99385.59
2023-03-10T17:18:50.827Z,99391.84
2023-03-10T17:19:52.843Z,99392.00
2023-03-10T17:20:54.825Z,99391.34
2023-03-10T17:21:58.554Z,99399.13
2023-03-10T17:23:00.596Z,99400.72
2023-03-10T17:24:03.680Z,99394.00
2023-03-10T17:25:06.210Z,99395.56
2023-03-10T17:26:09.971Z,99398.44
2023-03-10T17:27:11.896Z,99400.84
2023-03-10T17:28:14.062Z,99400.84
2023-03-10T17:29:16.900Z,99403.56
2023-03-10T17:30:20.100Z,99394.94
2023-03-10T17:31:28.621Z,99403.56
2023-03-10T17:32:30.935Z,99400.84
2023-03-10T17:33:32.912Z,99401.97
2023-03-10T17:34:34.766Z,99396.72
2023-03-10T17:35:38.789Z,99397.16
2023-03-10T17:36:43.211Z,99394.16
2023-03-10T17:37:47.037Z,99397.44
2023-03-10T17:38:52.775Z,99397.97
2023-03-10T17:39:54.652Z,99397.47
2023-03-10T17:40:56.619Z,99402.50
2023-03-10T17:41:58.644Z,99403.97
2023-03-10T17:43:13.168Z,99396.94
2023-03-10T17:44:23.290Z,99400.91
2023-03-10T17:45:25.472Z,99399.19
2023-03-10T17:46:29.860Z,99399.03
2023-03-10T17:47:32.046Z,99405.41
2023-03-10T17:48:34.740Z,99404.16
2023-03-10T17:49:36.623Z,99408.13
2023-03-10T17:50:38.839Z,99409.22
2023-03-10T17:51:43.755Z,99408.13
2023-03-10T17:52:47.697Z,99405.16
2023-03-10T17:53:49.672Z,99400.06
2023-03-10T17:54:51.796Z,99401.97
2023-03-10T17:55:54.298Z,99413.41
2023-03-10T17:56:56.248Z,99409.59
2023-03-10T17:57:58.099Z,99406.38
2023-03-10T17:59:00.058Z,99412.94
2023-03-10T18:00:02.024Z,99408.84
2023-03-10T18:01:17.316Z,99413.22
2023-03-10T18:02:19.444Z,99411.38
2023-03-10T18:03:22.289Z,99418.91
2023-03-10T18:04:24.166Z,99413.00
2023-03-10T18:05:26.168Z,99423.31
2023-03-10T18:06:31.394Z,99432.91
2023-03-10T18:07:33.961Z,99429.09
2023-03-10T18:08:35.948Z,99430.84
2023-03-10T18:09:38.883Z,99429.44
2023-03-10T18:10:42.291Z,99419.38
2023-03-10T18:11:45.826Z,99416.75
2023-03-10T18:12:47.911Z,99424.84
2023-03-10T18:13:49.908Z,99422.50
2023-03-10T18:14:52.325Z,99420.91
2023-03-10T18:15:54.332Z,99425.75
2023-03-10T18:16:57.627Z,99424.31
2023-03-10T18:18:01.229Z,99428.13
2023-03-10T18:19:05.044Z,99427.47
2023-03-10T18:20:10.335Z,99428.94
2023-03-10T18:21:13.622Z,99421.75
2023-03-10T18:22:15.459Z,99432.06
2023-03-10T18:23:20.648Z,99436.09
2023-03-10T18:24:22.628Z,99437.38
2023-03-10T18:25:24.449Z,99438.59
2023-03-10T18:26:30.560Z,99437.63
2023-03-10T18:27:33.007Z,99438.41
2023-03-10T18:28:35.675Z,99440.81
2023-03-10T18:29:37.584Z,99443.56
2023-03-10T18:30:44.807Z,99448.25
2023-03-10T18:31:46.955Z,99446.66
2023-03-10T18:32:49.223Z,99442.47
2023-03-10T18:33:51.729Z,99444.22
2023-03-10T18:34:54.531Z,99446.88
2023-03-10T18:35:57.486Z,99444.59
2023-03-10T18:37:00.222Z,99447.53
2023-03-10T18:38:02.117Z,99443.91
2023-03-10T18:39:07.397Z,99448.25
2023-03-10T18:40:14.686Z,99445.22
2023-03-10T18:41:24.305Z,99450.81
2023-03-10T18:42:27.751Z,99444.69
2023-03-10T18:43:32.238Z,99440.88
2023-03-10T18:44:34.142Z,99433.09
2023-03-10T18:45:39.442Z,99444.22
2023-03-10T18:46:41.460Z,99445.50
2023-03-10T18:47:45.804Z,99442.13
2023-03-10T18:48:55.504Z,99441.31
2023-03-10T18:49:58.756Z,99438.69
2023-03-10T18:51:00.839Z,99439.28
2023-03-10T18:52:02.876Z,99442.84
2023-03-10T18:53:04.791Z,99443.94
2023-03-10T18:54:07.071Z,99443.94
2023-03-10T18:55:11.639Z,99441.88
2023-03-10T18:56:14.086Z,99449.84
2023-03-10T18:57:16.440Z,99455.25
2023-03-10T18:58:18.835Z,99457.38
2023-03-10T18:59:20.722Z,99454.03
2023-03-10T19:00:23.275Z,99457.47
2023-03-10T19:01:26.923Z,99455.84
2023-03-10T19:02:29.181Z,99452.78
2023-03-10T19:03:31.534Z,99455.53
2023-03-10T19:04:33.403Z,99455.19
2023-03-10T19:05:35.307Z,99455.19
2023-03-10T19:06:37.232Z,99458.75
2023-03-10T19:07:39.389Z,99457.31
2023-03-10T19:08:42.737Z,99452.25
2023-03-10T19:09:44.631Z,99452.72
2023-03-10T19:10:54.597Z,99450.75
2023-03-10T19:11:56.476Z,99450.00
2023-03-10T19:12:58.584Z,99446.69
2023-03-10T19:14:00.379Z,99438.56
2023-03-10T19:15:09.102Z,99443.38
2023-03-10T19:16:11.773Z,99449.13
2023-03-10T19:17:13.838Z,99453.31
2023-03-10T19:18:16.925Z,99451.06
2023-03-10T19:19:19.192Z,99447.59
2023-03-10T19:20:21.406Z,99444.38
2023-03-10T19:21:24.320Z,99444.63
2023-03-10T19:22:26.217Z,99444.00
2023-03-10T19:23:29.274Z,99450.38
2023-03-10T19:24:33.867Z,99454.19
2023-03-10T19:25:35.906Z,99452.38
2023-03-10T19:26:38.238Z,99448.28
2023-03-10T19:27:40.839Z,99445.13
2023-03-10T19:28:42.792Z,99445.41
2023-03-10T19:29:44.890Z,99449.16
2023-03-10T19:30:46.900Z,99450.16
2023-03-10T19:31:48.993Z,99448.94
2023-03-10T19:32:51.072Z,99448.78
2023-03-10T19:33:53.083Z,99451.97
2023-03-10T19:34:54.949Z,99452.16
2023-03-10T19:36:04.301Z,99456.78
2023-03-10T19:37:06.322Z,99458.03
2023-03-10T19:38:08.408Z,99462.38
2023-03-10T19:39:10.679Z,99463.44
2023-03-10T19:40:17.064Z,99464.34
2023-03-10T19:41:20.094Z,99471.09
2023-03-10T19:42:23.129Z,99470.63
2023-03-10T19:43:25.121Z,99469.19
2023-03-10T19:44:27.620Z,99469.63
2023-03-10T19:45:30.037Z,99472.22
2023-03-10T19:46:32.026Z,99473.59
2023-03-10T19:47:33.956Z,99474.88
2023-03-10T19:48:36.139Z,99478.78
2023-03-10T19:49:39.806Z,99487.25
2023-03-10T19:50:41.673Z,99480.44
2023-03-10T19:51:43.561Z,99482.84
2023-03-10T19:52:47.479Z,99487.56
2023-03-10T19:53:51.556Z,99492.63
2023-03-10T19:54:54.011Z,99487.31
2023-03-10T19:55:58.615Z,99485.16
2023-03-10T19:57:00.633Z,99490.84
2023-03-10T19:58:02.482Z,99488.75
2023-03-10T19:59:07.407Z,99484.75
2023-03-10T20:00:13.924Z,99489.16
2023-03-10T20:01:19.928Z,99488.19
2023-03-10T20:02:22.147Z,99494.56
2023-03-10T20:03:27.522Z,99493.13
2023-03-10T20:04:34.683Z,99494.19
2023-03-10T20:05:37.657Z,99490.78
2023-03-10T20:06:39.629Z,99492.03
2023-03-10T20:07:43.012Z,99499.28
2023-03-10T20:08:44.993Z,99488.19
2023-03-10T20:09:48.212Z,99504.97
2023-03-10T20:10:50.906Z,99498.13
2023-03-10T20:11:55.292Z,99493.41
2023-03-10T20:12:59.932Z,99494.56
2023-03-10T20:14:01.882Z,99499.38
2023-03-10T20:15:05.805Z,99498.16
2023-03-10T20:16:09.091Z,99500.41
2023-03-10T20:17:11.044Z,99492.44
2023-03-10T20:18:12.956Z,99497.84
2023-03-10T20:19:14.889Z,99496.03
2023-03-10T20:20:20.192Z,99493.81
2023-03-10T20:21:22.090Z,99489.28
2023-03-10T20:22:24.497Z,99488.81
2023-03-10T20:23:26.343Z,99503.44
2023-03-10T20:24:29.082Z,99504.81
2023-03-10T20:25:30.996Z,99502.34
2023-03-10T20:26:33.106Z,99496.50
2023-03-10T20:27:35.465Z,99505.56
2023-03-10T20:28:39.801Z,99502.22
2023-03-10T20:29:42.038Z,99503.25
2023-03-10T20:30:45.014Z,99506.75
2023-03-10T20:31:46.880Z,99512.31
2023-03-10T20:32:49.234Z,99508.69
2023-03-10T20:33:51.324Z,99503.59
2023-03-10T20:34:53.383Z,99506.66
2023-03-10T20:35:55.956Z,99510.50
2023-03-10T20:36:58.150Z,99513.53
2023-03-10T20:38:00.640Z,99516.97